createdAt,value
2023-01-01T00:01:25.456Z,7.63
2023-01-01T00:03:53.504Z,7.80
2023-01-01T00:06:20.623Z,7.97
2023-01-01T00:08:47.834Z,8.13
2023-01-01T00:11:17.537Z,8.23
2023-01-01T00:13:44.782Z,8.35
2023-01-01T00:16:13.536Z,8.00
2023-01-01T00:18:40.693Z,8.85
2023-01-01T00:21:09.845Z,9.43
2023-01-01T00:23:36.257Z,8.80
2023-01-01T00:26:12.632Z,9.38
2023-01-01T00:28:39.505Z,9.45
2023-01-01T00:31:18.361Z,10.18
2023-01-01T00:33:46.139Z,9.88
2023-01-01T00:36:14.730Z,10.23
2023-01-01T00:38:42.370Z,10.55
2023-01-01T00:41:08.813Z,10.43
2023-01-01T00:43:35.401Z,10.57
2023-01-01T00:46:02.007Z,11.35
2023-01-01T00:48:28.457Z,10.60
2023-01-01T00:50:54.947Z,10.30
2023-01-01T00:53:21.936Z,10.40
2023-01-01T00:55:50.168Z,9.88
2023-01-01T00:58:17.777Z,9.82
2023-01-01T01:00:44.491Z,10.50
2023-01-01T01:03:27.860Z,9.68
2023-01-01T01:06:12.773Z,10.05
2023-01-01T01:08:41.317Z,10.40
2023-01-01T01:11:14.947Z,9.57
2023-01-01T01:13:43.144Z,9.43
2023-01-01T01:16:16.163Z,9.20
2023-01-01T01:18:43.787Z,9.55
2023-01-01T01:21:11.079Z,9.15
2023-01-01T01:23:37.524Z,9.02
2023-01-01T01:26:12.462Z,8.00
2023-01-01T01:28:45.431Z,8.48
2023-01-01T01:31:15.437Z,8.30
2023-01-01T01:33:45.839Z,7.90
2023-01-01T01:38:39.473Z,7.15
2023-01-01T01:41:06.451Z,8.15
2023-01-01T01:43:32.787Z,8.93
2023-01-01T01:46:03.839Z,8.05
2023-01-01T01:48:36.797Z,8.10
2023-01-01T01:51:03.589Z,8.18
2023-01-01T01:53:35.273Z,9.02
2023-01-01T01:56:06.665Z,8.60
2023-01-01T01:58:34.151Z,7.72
2023-01-01T02:01:01.405Z,8.18
2023-01-01T02:03:36.044Z,8.50
2023-01-01T02:06:03.245Z,8.20
2023-01-01T02:08:30.117Z,8.70
2023-01-01T02:10:56.585Z,9.02
2023-01-01T02:13:23.030Z,8.98
2023-01-01T02:16:03.722Z,8.80
2023-01-01T02:18:39.068Z,9.02
2023-01-01T02:21:17.119Z,10.02
2023-01-01T02:24:10.122Z,8.68
2023-01-01T02:26:56.666Z,9.00
2023-01-01T02:29:32.969Z,9.45
2023-01-01T02:32:05.675Z,9.20
2023-01-01T02:34:36.292Z,9.40
2023-01-01T02:37:06.547Z,9.38
2023-01-01T02:39:37.524Z,9.57
2023-01-01T02:42:07.246Z,9.25
2023-01-01T02:44:36.530Z,9.90
2023-01-01T02:47:09.724Z,9.60
2023-01-01T02:49:39.471Z,10.10
2023-01-01T02:52:39.017Z,9.95
2023-01-01T02:55:24.707Z,9.80
2023-01-01T02:58:24.520Z,9.77
2023-01-01T03:00:53.113Z,10.13
2023-01-01T03:03:30.920Z,8.98
2023-01-01T03:06:52.109Z,9.18
2023-01-01T03:09:23.660Z,9.20
2023-01-01T03:12:08.881Z,9.90
2023-01-01T03:14:47.127Z,9.82
2023-01-01T03:17:31.907Z,9.50
2023-01-01T03:20:02.672Z,9.18
2023-01-01T03:22:33.185Z,8.77
2023-01-01T03:25:23.709Z,9.60
2023-01-01T03:30:20.956Z,9.07
2023-01-01T03:33:11.686Z,9.07
2023-01-01T03:35:54.201Z,9.82
2023-01-01T03:38:31.519Z,10.15
2023-01-01T03:41:05.102Z,9.90
2023-01-01T03:43:40.500Z,9.80
2023-01-01T03:46:08.700Z,10.25
2023-01-01T03:49:02.134Z,8.82
2023-01-01T03:51:36.092Z,9.73
2023-01-01T03:54:09.128Z,10.02
2023-01-01T03:56:45.513Z,9.88
2023-01-01T03:59:22.325Z,10.63
2023-01-01T04:01:53.283Z,10.70
2023-01-01T04:04:20.269Z,10.45
2023-01-01T04:06:47.065Z,10.68
2023-01-01T04:09:17.771Z,10.63
2023-01-01T04:12:01.766Z,10.23
2023-01-01T04:14:34.814Z,11.05
2023-01-01T04:17:02.391Z,10.82
2023-01-01T04:19:29.242Z,11.18
2023-01-01T04:21:55.730Z,11.88
2023-01-01T04:24:23.393Z,12.55
2023-01-01T04:26:51.493Z,12.50
2023-01-01T04:29:18.268Z,13.02
2023-01-01T04:31:45.231Z,11.68
2023-01-01T04:34:11.847Z,13.32
2023-01-01T04:36:38.803Z,14.05
2023-01-01T04:39:05.692Z,13.02
2023-01-01T04:41:32.350Z,13.85
2023-01-01T04:43:59.075Z,13.10
2023-01-01T04:46:25.519Z,12.23
2023-01-01T04:48:52.158Z,12.75
2023-01-01T04:51:20.625Z,12.63
2023-01-01T04:53:47.227Z,12.13
2023-01-01T04:56:17.224Z,13.13
2023-01-01T04:58:44.259Z,13.45
2023-01-01T05:01:20.000Z,13.55
2023-01-01T05:03:47.300Z,13.52
2023-01-01T05:06:14.819Z,14.05
2023-01-01T05:08:44.081Z,13.65
2023-01-01T05:11:21.590Z,13.18
2023-01-01T05:13:50.221Z,14.15
2023-01-01T05:16:19.843Z,13.82
2023-01-01T05:18:47.400Z,13.50
2023-01-01T05:21:19.386Z,13.75
2023-01-01T05:23:46.284Z,13.05
2023-01-01T05:26:15.518Z,13.45
2023-01-01T05:28:42.176Z,13.15
2023-01-01T05:31:11.468Z,13.38
2023-01-01T05:33:38.221Z,13.38
2023-01-01T05:36:06.205Z,13.38
2023-01-01T05:38:32.695Z,13.13
2023-01-01T05:40:59.135Z,13.55
2023-01-01T05:43:25.565Z,12.82
2023-01-01T05:46:02.793Z,13.30
2023-01-01T05:48:29.688Z,12.02
2023-01-01T05:51:05.526Z,12.00
2023-01-01T05:53:32.678Z,11.18
2023-01-01T05:55:59.935Z,12.60
2023-01-01T05:58:27.761Z,11.60
2023-01-01T06:00:54.304Z,11.48
2023-01-01T06:03:20.943Z,11.45
2023-01-01T06:05:48.690Z,10.48
2023-01-01T06:08:15.206Z,10.52
2023-01-01T06:10:41.619Z,10.57
2023-01-01T06:13:13.150Z,11.05
2023-01-01T06:15:40.054Z,10.23
2023-01-01T06:18:06.476Z,9.98
2023-01-01T06:20:32.966Z,10.40
2023-01-01T06:22:59.436Z,10.30
2023-01-01T06:25:25.879Z,10.10
2023-01-01T06:27:52.277Z,9.98
2023-01-01T06:30:18.702Z,9.27
2023-01-01T06:32:45.079Z,9.18
2023-01-01T06:35:11.552Z,9.45
2023-01-01T06:37:37.995Z,9.23
2023-01-01T06:40:05.022Z,9.10
2023-01-01T06:42:33.976Z,8.90
2023-01-01T06:45:00.821Z,8.60
2023-01-01T06:47:27.303Z,8.98
2023-01-01T06:49:53.778Z,7.80
2023-01-01T06:52:20.154Z,7.85
2023-01-01T06:54:47.014Z,7.28
2023-01-01T06:57:13.432Z,7.88
2023-01-01T06:59:39.847Z,7.65
2023-01-01T07:02:06.337Z,7.55
2023-01-01T07:04:32.886Z,6.88
2023-01-01T07:07:01.255Z,6.20
2023-01-01T07:09:27.644Z,5.95
2023-01-01T07:11:54.052Z,5.78
2023-01-01T07:14:20.481Z,5.63
2023-01-01T07:16:46.952Z,5.93
2023-01-01T07:19:13.329Z,5.70
2023-01-01T07:22:00.043Z,5.63
2023-01-01T07:24:26.476Z,6.00
2023-01-01T07:26:52.834Z,5.22
2023-01-01T07:29:19.295Z,5.47
2023-01-01T07:31:45.735Z,5.28
2023-01-01T07:34:19.139Z,5.50
2023-01-01T07:36:45.643Z,5.38
2023-01-01T07:39:15.223Z,5.60
2023-01-01T07:41:41.643Z,6.20
2023-01-01T07:44:08.087Z,5.70
2023-01-01T07:46:36.115Z,5.70
2023-01-01T07:49:03.507Z,5.80
2023-01-01T07:51:30.022Z,5.30
2023-01-01T07:54:00.613Z,5.45
2023-01-01T07:56:30.479Z,5.80
2023-01-01T07:58:56.856Z,6.38
2023-01-01T08:01:23.340Z,6.47
2023-01-01T08:03:53.224Z,6.28
2023-01-01T08:06:19.871Z,6.15
2023-01-01T08:08:47.336Z,6.88
2023-01-01T08:11:13.740Z,6.70
2023-01-01T08:13:40.123Z,6.30
2023-01-01T08:16:07.048Z,6.22
2023-01-01T08:18:33.481Z,6.78
2023-01-01T08:20:59.926Z,6.43
2023-01-01T08:23:26.321Z,6.10
2023-01-01T08:25:52.817Z,6.13
2023-01-01T08:28:19.223Z,6.20
2023-01-01T08:30:45.662Z,6.47
2023-01-01T08:33:12.084Z,6.32
2023-01-01T08:35:41.671Z,5.47
2023-01-01T08:38:10.985Z,5.97
2023-01-01T08:40:37.642Z,5.63
2023-01-01T08:43:04.031Z,5.82
2023-01-01T08:45:30.729Z,5.70
2023-01-01T08:47:57.287Z,5.82
2023-01-01T08:50:23.712Z,5.63
2023-01-01T08:52:50.095Z,6.10
2023-01-01T08:55:16.568Z,6.03
2023-01-01T08:57:43.006Z,7.47
2023-01-01T09:00:10.206Z,6.07
2023-01-01T09:02:36.766Z,6.95
2023-01-01T09:05:03.493Z,6.45
2023-01-01T09:07:29.994Z,6.03
2023-01-01T09:09:56.401Z,6.35
2023-01-01T09:12:22.842Z,6.43
2023-01-01T09:14:49.317Z,6.60
2023-01-01T09:17:15.736Z,6.30
2023-01-01T09:19:42.258Z,6.20
2023-01-01T09:22:10.711Z,5.82
2023-01-01T09:24:37.158Z,6.75
2023-01-01T09:27:03.615Z,6.32
2023-01-01T09:29:30.039Z,6.70
2023-01-01T09:31:56.968Z,6.68
2023-01-01T09:34:23.451Z,6.80
2023-01-01T09:36:49.948Z,6.53
2023-01-01T09:39:16.477Z,5.60
2023-01-01T09:41:46.456Z,6.03
2023-01-01T09:44:41.015Z,6.03
2023-01-01T09:47:32.389Z,6.53
2023-01-01T09:50:06.650Z,6.85
2023-01-01T09:52:43.486Z,5.38
2023-01-01T09:55:16.721Z,5.22
2023-01-01T09:57:43.256Z,6.25
2023-01-01T10:00:18.936Z,6.47
2023-01-01T10:02:54.377Z,5.82
2023-01-01T10:05:43.752Z,6.30
2023-01-01T10:08:28.600Z,6.53
2023-01-01T10:11:10.080Z,5.03
2023-01-01T10:13:45.125Z,5.22
2023-01-01T10:16:45.149Z,4.97
2023-01-01T10:19:36.799Z,5.00
2023-01-01T10:22:10.797Z,4.90
2023-01-01T10:24:45.726Z,4.43
2023-01-01T10:27:35.798Z,5.45
2023-01-01T10:30:12.903Z,5.65
2023-01-01T10:32:40.908Z,5.82
2023-01-01T10:35:19.053Z,6.50
2023-01-01T10:37:46.128Z,6.00
2023-01-01T10:40:17.389Z,5.88
2023-01-01T10:42:49.325Z,6.18
2023-01-01T10:45:18.550Z,6.00
2023-01-01T10:48:14.015Z,6.63
2023-01-01T10:50:48.173Z,6.00
2023-01-01T10:53:36.809Z,6.32
2023-01-01T10:56:10.581Z,5.70
2023-01-01T10:58:42.966Z,5.65
2023-01-01T11:01:24.419Z,5.47
2023-01-01T11:04:02.147Z,6.55
2023-01-01T11:06:47.984Z,6.03
2023-01-01T11:09:23.726Z,5.75
2023-01-01T11:12:11.797Z,5.28
2023-01-01T11:14:43.709Z,5.32
2023-01-01T11:17:10.535Z,6.32
2023-01-01T11:19:41.271Z,6.78
2023-01-01T11:22:41.083Z,6.00
2023-01-01T11:25:28.365Z,6.50
2023-01-01T11:28:23.548Z,6.93
2023-01-01T11:31:07.302Z,6.32
2023-01-01T11:33:37.991Z,6.07
2023-01-01T11:36:05.803Z,6.90
2023-01-01T11:38:32.488Z,7.07
2023-01-01T11:41:05.723Z,6.28
2023-01-01T11:43:41.195Z,6.10
2023-01-01T11:46:10.734Z,6.60
2023-01-01T11:48:42.281Z,6.40
2023-01-01T11:51:11.603Z,6.43
2023-01-01T11:53:43.485Z,6.75
2023-01-01T11:56:20.347Z,6.63
2023-01-01T11:58:55.141Z,5.85
2023-01-01T12:01:28.121Z,6.10
2023-01-01T12:04:05.116Z,4.97
2023-01-01T12:06:44.050Z,5.95
2023-01-01T12:09:20.574Z,5.63
2023-01-01T12:11:52.560Z,5.85
2023-01-01T12:14:32.943Z,6.32
2023-01-01T12:17:27.262Z,6.28
2023-01-01T12:20:11.379Z,6.75
2023-01-01T12:22:38.748Z,6.10
2023-01-01T12:25:05.956Z,6.85
2023-01-01T12:27:44.734Z,6.80
2023-01-01T12:30:49.783Z,6.30
2023-01-01T12:33:48.049Z,6.00
2023-01-01T12:36:20.576Z,5.53
2023-01-01T12:39:05.717Z,6.57
2023-01-01T12:42:06.014Z,7.10
2023-01-01T12:45:01.425Z,6.68
2023-01-01T12:48:05.461Z,5.80
2023-01-01T12:51:04.818Z,5.97
2023-01-01T12:53:54.030Z,6.70
2023-01-01T12:56:35.904Z,6.45
2023-01-01T12:59:17.799Z,5.05
2023-01-01T13:01:45.304Z,4.88
2023-01-01T13:04:18.935Z,4.97
2023-01-01T13:07:03.631Z,5.50
2023-01-01T13:09:35.277Z,6.90
2023-01-01T13:12:05.570Z,6.30
2023-01-01T13:14:39.099Z,5.90
2023-01-01T13:17:20.549Z,5.60
2023-01-01T13:19:48.694Z,5.40
2023-01-01T13:22:38.926Z,5.32
2023-01-01T13:25:11.433Z,5.45
2023-01-01T13:28:00.352Z,6.78
2023-01-01T13:30:35.918Z,5.38
2023-01-01T13:33:32.504Z,6.10
2023-01-01T13:36:11.127Z,6.18
2023-01-01T13:38:53.759Z,6.03
2023-01-01T13:41:26.150Z,6.45
2023-01-01T13:43:53.855Z,6.53
2023-01-01T13:46:34.913Z,5.75
2023-01-01T13:49:16.716Z,5.55
2023-01-01T13:52:05.284Z,5.40
2023-01-01T13:55:28.080Z,5.55
2023-01-01T13:58:10.044Z,5.55
2023-01-01T14:01:02.910Z,5.53
2023-01-01T14:03:35.342Z,5.82
2023-01-01T14:06:08.867Z,5.53
2023-01-01T14:08:37.237Z,5.05
2023-01-01T14:11:19.132Z,5.30
2023-01-01T14:13:45.603Z,5.47
2023-01-01T14:16:15.830Z,5.68
2023-01-01T14:18:45.939Z,5.47
2023-01-01T14:21:21.846Z,7.00
2023-01-01T14:23:55.037Z,6.38
2023-01-01T14:26:24.108Z,6.57
2023-01-01T14:28:55.278Z,6.72
2023-01-01T14:31:25.517Z,6.95
2023-01-01T14:33:51.961Z,7.00
2023-01-01T14:36:30.686Z,6.68
2023-01-01T14:39:00.765Z,7.82
2023-01-01T14:41:36.319Z,7.00
2023-01-01T14:44:07.296Z,7.18
2023-01-01T14:46:39.277Z,7.57
2023-01-01T14:49:09.861Z,6.60
2023-01-01T14:51:42.619Z,6.20
2023-01-01T14:54:19.564Z,5.40
2023-01-01T14:56:48.038Z,6.18
2023-01-01T14:59:32.540Z,5.60
2023-01-01T15:02:21.130Z,6.78
2023-01-01T15:04:47.873Z,7.03
2023-01-01T15:07:23.321Z,7.10
2023-01-01T15:09:54.146Z,6.95
2023-01-01T15:12:22.626Z,6.65
2023-01-01T15:14:51.236Z,7.00
2023-01-01T15:17:23.505Z,7.55
2023-01-01T15:20:06.758Z,6.97
2023-01-01T15:22:35.837Z,7.57
2023-01-01T15:25:02.869Z,7.25
2023-01-01T15:27:35.274Z,6.80
2023-01-01T15:30:05.887Z,7.25
2023-01-01T15:32:37.040Z,6.78
2023-01-01T15:35:06.277Z,6.70
2023-01-01T15:37:42.444Z,6.75
2023-01-01T15:40:14.877Z,7.15
2023-01-01T15:42:47.011Z,6.57
2023-01-01T15:45:19.505Z,6.43
2023-01-01T15:47:47.862Z,6.45
2023-01-01T15:50:22.953Z,7.07
2023-01-01T15:52:55.717Z,6.65
2023-01-01T15:55:22.758Z,6.38
2023-01-01T15:57:51.335Z,7.28
2023-01-01T16:00:33.106Z,7.10
2023-01-01T16:03:12.836Z,7.78
2023-01-01T16:05:47.194Z,6.78
2023-01-01T16:08:13.614Z,6.60
2023-01-01T16:10:39.983Z,7.28
2023-01-01T16:13:09.116Z,6.78
2023-01-01T16:15:36.425Z,7.20
2023-01-01T16:18:03.092Z,6.85
2023-01-01T16:20:29.578Z,7.22
2023-01-01T16:22:55.943Z,7.25
2023-01-01T16:25:23.405Z,6.72
2023-01-01T16:27:49.938Z,6.95
2023-01-01T16:30:16.647Z,6.93
2023-01-01T16:32:43.041Z,7.03
2023-01-01T16:35:13.626Z,7.57
2023-01-01T16:37:40.071Z,7.80
2023-01-01T16:40:07.578Z,7.20
2023-01-01T16:42:33.951Z,6.60
2023-01-01T16:45:00.356Z,7.00
2023-01-01T16:47:26.792Z,6.57
2023-01-01T16:49:53.240Z,6.65
2023-01-01T16:52:19.649Z,7.10
2023-01-01T16:54:46.032Z,6.63
2023-01-01T16:57:12.430Z,6.50
2023-01-01T16:59:38.879Z,7.47
2023-01-01T17:02:06.447Z,6.57
2023-01-01T17:04:35.148Z,6.30
2023-01-01T17:07:01.511Z,6.40
2023-01-01T17:09:28.227Z,5.53
2023-01-01T17:11:54.628Z,5.15
2023-01-01T17:14:21.078Z,5.22
2023-01-01T17:16:47.462Z,5.45
2023-01-01T17:19:15.513Z,4.78
2023-01-01T17:21:42.492Z,5.25
2023-01-01T17:24:09.010Z,5.03
2023-01-01T17:26:35.661Z,4.90
2023-01-01T17:29:03.080Z,5.55
2023-01-01T17:31:30.122Z,5.18
2023-01-01T17:33:56.804Z,4.75
2023-01-01T17:36:23.741Z,4.65
2023-01-01T17:38:50.177Z,4.70
2023-01-01T17:41:17.148Z,4.75
2023-01-01T17:43:47.647Z,4.72
2023-01-01T17:48:43.156Z,4.40
2023-01-01T17:51:10.127Z,4.90
2023-01-01T17:53:38.796Z,4.60
2023-01-01T17:56:09.871Z,4.20
2023-01-01T17:58:36.325Z,4.65
2023-01-01T18:01:23.103Z,4.53
2023-01-01T18:03:55.481Z,4.78
2023-01-01T18:06:22.306Z,5.28
2023-01-01T18:08:49.543Z,7.93
2023-01-01T18:11:15.926Z,8.93
2023-01-01T18:13:42.323Z,8.45
2023-01-01T18:16:09.782Z,7.38
2023-01-01T18:18:38.018Z,5.93
2023-01-01T18:21:11.569Z,5.97
2023-01-01T18:23:40.069Z,5.80
2023-01-01T18:26:10.077Z,5.15
2023-01-01T18:28:36.724Z,5.47
2023-01-01T18:31:07.967Z,4.97
2023-01-01T18:33:35.164Z,4.78
2023-01-01T18:36:06.805Z,4.80
2023-01-01T18:38:33.506Z,5.57
2023-01-01T18:41:38.379Z,5.10
2023-01-01T18:44:14.618Z,6.07
2023-01-01T18:46:41.004Z,5.30
2023-01-01T18:49:09.527Z,5.70
2023-01-01T18:51:36.015Z,5.53
2023-01-01T18:54:02.404Z,5.38
2023-01-01T18:56:30.837Z,5.18
2023-01-01T18:58:57.996Z,5.50
2023-01-01T19:01:24.728Z,5.75
2023-01-01T19:03:55.102Z,5.75
2023-01-01T19:06:30.461Z,6.05
2023-01-01T19:09:19.790Z,6.03
2023-01-01T19:11:51.276Z,5.72
2023-01-01T19:14:20.509Z,5.47
2023-01-01T19:16:49.098Z,5.43
2023-01-01T19:19:21.520Z,5.13
2023-01-01T19:21:52.139Z,5.78
2023-01-01T19:24:23.337Z,5.28
2023-01-01T19:26:57.021Z,4.85
2023-01-01T19:29:25.309Z,4.40
2023-01-01T19:31:54.209Z,4.93
2023-01-01T19:34:21.904Z,4.68
2023-01-01T19:36:48.646Z,4.47
2023-01-01T19:39:15.794Z,4.60
2023-01-01T19:41:42.682Z,4.72
2023-01-01T19:44:10.540Z,4.80
2023-01-01T19:46:37.150Z,4.93
2023-01-01T19:49:03.650Z,5.00
2023-01-01T19:51:30.067Z,4.90
2023-01-01T19:53:56.489Z,4.82
2023-01-01T19:56:23.501Z,4.63
2023-01-01T19:58:49.968Z,4.85
2023-01-01T20:01:16.764Z,4.97
2023-01-01T20:03:58.898Z,5.15
2023-01-01T20:06:26.559Z,4.43
2023-01-01T20:08:53.744Z,4.68
2023-01-01T20:11:20.888Z,4.18
2023-01-01T20:13:47.271Z,4.55
2023-01-01T20:16:13.789Z,4.53
2023-01-01T20:18:40.311Z,4.18
2023-01-01T20:21:26.607Z,4.80
2023-01-01T20:23:54.447Z,4.90
2023-01-01T20:26:21.068Z,5.30
2023-01-01T20:29:05.857Z,4.60
2023-01-01T20:31:32.291Z,4.97
2023-01-01T20:33:58.686Z,4.90
2023-01-01T20:36:43.864Z,4.32
2023-01-01T20:39:10.224Z,4.70
2023-01-01T20:41:36.622Z,5.30
2023-01-01T20:44:03.045Z,5.10
2023-01-01T20:46:32.426Z,4.60
2023-01-01T20:48:58.870Z,5.20
2023-01-01T20:51:25.250Z,5.10
2023-01-01T20:53:51.649Z,4.95
2023-01-01T20:56:18.064Z,4.70
2023-01-01T20:58:49.374Z,4.90
2023-01-01T21:01:18.940Z,4.57
2023-01-01T21:03:45.446Z,4.20
2023-01-01T21:06:12.194Z,4.82
2023-01-01T21:08:38.581Z,4.60
2023-01-01T21:11:05.331Z,4.88
2023-01-01T21:13:31.776Z,4.55
2023-01-01T21:16:17.349Z,5.07
2023-01-01T21:18:45.074Z,4.28
2023-01-01T21:21:26.545Z,4.70
2023-01-01T21:23:57.389Z,4.40
2023-01-01T21:26:30.026Z,4.75
2023-01-01T21:28:59.247Z,4.63
2023-01-01T21:31:27.696Z,4.93
2023-01-01T21:33:54.113Z,4.40
2023-01-01T21:36:23.095Z,4.35
2023-01-01T21:38:51.140Z,4.40
2023-01-01T21:41:20.702Z,4.65
2023-01-01T21:43:54.543Z,4.33
2023-01-01T21:46:30.183Z,4.72
2023-01-01T21:49:03.818Z,4.57
2023-01-01T21:51:37.480Z,5.00
2023-01-01T21:54:10.317Z,4.70
2023-01-01T21:56:45.240Z,4.25
2023-01-01T21:59:36.771Z,4.47
2023-01-01T22:02:06.907Z,4.57
2023-01-01T22:09:56.477Z,4.47
2023-01-01T22:12:25.043Z,4.90
2023-01-01T22:14:54.719Z,5.10
2023-01-01T22:17:24.955Z,4.75
2023-01-01T22:19:52.428Z,4.55
2023-01-01T22:22:22.715Z,4.30
2023-01-01T22:24:55.149Z,4.88
2023-01-01T22:27:35.754Z,4.30
2023-01-01T22:30:39.762Z,4.55
2023-01-01T22:33:17.336Z,4.85
2023-01-01T22:35:44.268Z,4.68
2023-01-01T22:38:17.514Z,4.78
2023-01-01T22:40:48.775Z,4.70
2023-01-01T22:43:17.797Z,4.57
2023-01-01T22:45:49.042Z,4.35
2023-01-01T22:48:24.005Z,4.55
2023-01-01T22:50:52.418Z,4.65
2023-01-01T22:53:18.844Z,4.78
2023-01-01T22:55:45.979Z,4.65
2023-01-01T22:58:12.809Z,4.72
2023-01-01T23:00:39.253Z,4.40
2023-01-01T23:03:05.784Z,4.50
2023-01-01T23:05:32.331Z,4.40
2023-01-01T23:07:58.985Z,4.88
2023-01-01T23:10:25.448Z,4.25
2023-01-01T23:12:52.201Z,4.82
2023-01-01T23:15:37.482Z,4.30
2023-01-01T23:18:04.103Z,3.83
2023-01-01T23:20:30.895Z,4.40
2023-01-01T23:22:57.448Z,3.70
2023-01-01T23:25:24.102Z,3.72
2023-01-01T23:27:52.282Z,4.00
2023-01-01T23:30:18.834Z,4.60
2023-01-01T23:32:45.797Z,4.40
2023-01-01T23:35:12.492Z,4.03
2023-01-01T23:37:39.315Z,3.70
2023-01-01T23:40:06.349Z,4.18
2023-01-01T23:42:32.764Z,3.85
2023-01-01T23:44:59.181Z,4.47
2023-01-01T23:47:25.594Z,4.22
2023-01-01T23:49:52.038Z,4.47
2023-01-01T23:52:18.446Z,4.65
2023-01-01T23:54:44.881Z,4.00
2023-01-01T23:57:11.298Z,4.35
2023-01-01T23:59:37.716Z,4.53
